Карточка аэропорта USPP

Внимание!
Информация на этой странице в стадии наполнения.
Если вы не увидели какой-то информации, или заметили неточность - пожалуйста сообщите нам!
Спасибо!
Команда RU-STAFF
Название аэропортаБольшое Савино
Название аэропорта (англ.)Bolshoe Savino
Превышение404 ft. (123.1 m.)
Координаты57°55.866', 56°1.6019999999999'
Высота перехода1200m
Эшелон переходаQFE>749:FL60; 749>QFE>722:FL70; 722>QFE: FL80;
Коды ответчика5610-5617
Зона ОрВДЕкатеринбург РПИ (USSV)
Данные METARUSPP 080000Z 24003MPS 9000 -SN BKN022 M16/M19 Q1033 R21/490149 TEMPO 1100 -SN BR RMK QFE764
Проноз погоды (TAF)USPP 071957Z 0721/0821 24003G12MPS 6000 BKN016 TEMPO 0721/0805 -SN BKN004 BECMG 0805/0806 9999 -SN BECMG 0815/0816 28003G13MPS
NOTAMshow/hide NOTAM
AWOS   TABLE

Информация о ВПП

ВПП Длина ВПП (м.) Покрытие Курс ВПП Частота ILS
213204Железобетон211109.9
033204Железобетон31 

Диспетчерские позиции

Позывной Наименование органа УВД Частота
USPP_APPПермь-Подход127.100
USPP_TWRПермь-Старт124.000
USPP_R_APPПермь-Круг121.700



Спутниковое изображение